1911 MISSING (1911235N25295)


On this page: IBTrACS data - Map and Plots - Positions - Intensities - Original source data

Summary

Start Aug 23
End Aug 31
Basin NA
LMI 85 kt
Sources hurdat_atl
atcf
In WMO? Yes
Previous storm 1911 MISSING (WP)
Previous in basin 1911 MISSING (NA)
Concurrent storms 1911 MISSING (WP)
1911 MISSING (WP)
1911 MISSING (NA)
1911 MISSING (WP)
1911 MISSING (NI)
Next in basin 1911 MISSING (NA)
Next storm 1911 MISSING (WP)

top of page IBTrACS Data: File Access

No storm imagery available

top of page Plots:

Map of storm track will not appear if FTP is down
Time series of cyclone Maximum Sustained Wind will not appear if FTP is down
Time series of cyclone Minimum Central Pressure will not appear if FTP is down

top of page Track Data:Position

hurdat_atl atcf
Date Lat Lon Lat Lon
1911-08-23 06:00:00 25.2 -65.5 25.2 -65.5
1911-08-23 12:00:00 25.5 -66.5 25.5 -66.5
1911-08-23 18:00:00 25.8 -67.4 25.8 -67.4
1911-08-24 00:00:00 26.1 -68.3 26.1 -68.3
1911-08-24 06:00:00 26.3 -69.2 26.3 -69.2
1911-08-24 12:00:00 26.5 -70.0 26.5 -70.0
1911-08-24 18:00:00 26.7 -70.7 26.7 -70.7
1911-08-25 00:00:00 26.9 -71.4 26.9 -71.4
1911-08-25 06:00:00 27.2 -72.1 27.2 -72.1
1911-08-25 12:00:00 27.5 -72.8 27.5 -72.8
1911-08-25 18:00:00 28.0 -73.5 28.0 -73.5
1911-08-26 00:00:00 28.7 -74.3 28.7 -74.3
1911-08-26 06:00:00 29.6 -75.1 29.6 -75.1
1911-08-26 12:00:00 30.1 -75.8 30.1 -75.8
1911-08-26 18:00:00 30.5 -76.4 30.5 -76.4
1911-08-27 00:00:00 30.8 -77.1 30.8 -77.1
1911-08-27 06:00:00 31.1 -77.8 31.1 -77.8
1911-08-27 12:00:00 31.5 -78.7 31.5 -78.7
1911-08-27 18:00:00 31.8 -79.2 31.8 -79.2
1911-08-28 00:00:00 32.0 -79.6 32.0 -79.6
1911-08-28 06:00:00 32.1 -80.3 32.1 -80.3
1911-08-28 12:00:00 32.2 -81.0 32.2 -81.0
1911-08-28 18:00:00 32.3 -81.5 32.3 -81.5
1911-08-29 00:00:00 32.4 -82.0 32.4 -82.0
1911-08-29 06:00:00 32.3 -82.5 32.3 -82.5
hurdat_atl atcf
1911-08-29 12:00:00 32.1 -83.0 32.1 -83.0
1911-08-29 18:00:00 32.0 -83.4 32.0 -83.4
1911-08-30 00:00:00 32.2 -83.7 32.2 -83.7
1911-08-30 06:00:00 33.0 -83.9 33.0 -83.9
1911-08-30 12:00:00 34.0 -84.0 34.0 -84.0
1911-08-30 18:00:00 34.8 -83.5 34.8 -83.5
1911-08-31 00:00:00 35.4 -82.5 35.4 -82.5
1911-08-31 06:00:00 35.8 -81.0 35.8 -81.0
1911-08-31 12:00:00 36.0 -79.5 36.0 -79.5

top of pageTrack Data:Intensity

hurdat_atl atcf
Date Wind Pres Wind Pres
1911-08-23 06:00:00 35. 35.
1911-08-23 12:00:00 40. 40.
1911-08-23 18:00:00 40. 40.
1911-08-24 00:00:00 45. 45.
1911-08-24 06:00:00 50. 50.
1911-08-24 12:00:00 55. 55.
1911-08-24 18:00:00 60. 60.
1911-08-25 00:00:00 65. 65.
1911-08-25 06:00:00 70. 70.
1911-08-25 12:00:00 70. 70.
1911-08-25 18:00:00 75. 75.
1911-08-26 00:00:00 80. 80.
1911-08-26 06:00:00 80. 80.
1911-08-26 12:00:00 80. 80.
1911-08-26 18:00:00 80. 80.
1911-08-27 00:00:00 80. 80.
1911-08-27 06:00:00 80. 80.
1911-08-27 12:00:00 85. 85.
1911-08-27 18:00:00 85. 85.
1911-08-28 00:00:00 85. 85.
1911-08-28 06:00:00 85. 972. 85. 972.
1911-08-28 12:00:00 65. 65.
1911-08-28 18:00:00 50. 50.
1911-08-29 00:00:00 45. 45.
1911-08-29 06:00:00 35. 35.
hurdat_atl atcf
1911-08-29 12:00:00 35. 35.
1911-08-29 18:00:00 30. 30.
1911-08-30 00:00:00 30. 30.
1911-08-30 06:00:00 30. 30.
1911-08-30 12:00:00 30. 30.
1911-08-30 18:00:00 30. 30.
1911-08-31 00:00:00 25. 25.
1911-08-31 06:00:00 25. 25.
1911-08-31 12:00:00 20. 20.

top of page Links to source data

Source Source file Format
hurdat_atl tracks1851to2011.txt:463:NOT NAMED HURDAT
atcf bal031911.dat ATCF